sensor_id;sensor_type;location;lat;lon;timestamp;P1;durP1;ratioP1;P2;durP2;ratioP2
22064;SDS011;11197;53.110;8.468;2022-12-18T00:01:04;55.25;;;22.33;;
22064;SDS011;11197;53.110;8.468;2022-12-18T00:03:37;53.17;;;23.42;;
22064;SDS011;11197;53.110;8.468;2022-12-18T00:06:03;47.30;;;22.15;;
22064;SDS011;11197;53.110;8.468;2022-12-18T00:08:29;51.65;;;22.50;;
22064;SDS011;11197;53.110;8.468;2022-12-18T00:10:55;54.67;;;23.08;;
22064;SDS011;11197;53.110;8.468;2022-12-18T00:13:28;47.47;;;21.60;;
22064;SDS011;11197;53.110;8.468;2022-12-18T00:15:54;54.08;;;23.33;;
22064;SDS011;11197;53.110;8.468;2022-12-18T00:18:19;49.90;;;22.05;;
22064;SDS011;11197;53.110;8.468;2022-12-18T00:20:45;49.92;;;22.00;;
22064;SDS011;11197;53.110;8.468;2022-12-18T00:23:11;45.78;;;21.27;;
22064;SDS011;11197;53.110;8.468;2022-12-18T00:25:37;46.45;;;20.88;;
22064;SDS011;11197;53.110;8.468;2022-12-18T00:28:03;50.55;;;22.10;;
22064;SDS011;11197;53.110;8.468;2022-12-18T00:30:29;47.78;;;22.23;;
22064;SDS011;11197;53.110;8.468;2022-12-18T00:32:55;46.75;;;20.75;;
22064;SDS011;11197;53.110;8.468;2022-12-18T00:35:24;48.67;;;21.92;;
22064;SDS011;11197;53.110;8.468;2022-12-18T00:37:51;50.90;;;22.42;;
22064;SDS011;11197;53.110;8.468;2022-12-18T00:40:17;50.70;;;22.83;;
22064;SDS011;11197;53.110;8.468;2022-12-18T00:42:43;46.80;;;22.42;;
22064;SDS011;11197;53.110;8.468;2022-12-18T00:45:24;48.83;;;21.83;;
22064;SDS011;11197;53.110;8.468;2022-12-18T00:47:52;47.63;;;22.25;;
22064;SDS011;11197;53.110;8.468;2022-12-18T00:50:18;47.65;;;21.83;;
22064;SDS011;11197;53.110;8.468;2022-12-18T00:52:44;48.58;;;22.13;;
22064;SDS011;11197;53.110;8.468;2022-12-18T00:55:10;50.05;;;21.98;;
22064;SDS011;11197;53.110;8.468;2022-12-18T00:57:36;50.25;;;23.60;;
22064;SDS011;11197;53.110;8.468;2022-12-18T01:00:03;49.63;;;22.52;;
22064;SDS011;11197;53.110;8.468;2022-12-18T01:02:31;46.65;;;21.52;;
22064;SDS011;11197;53.110;8.468;2022-12-18T01:04:56;48.65;;;22.60;;
22064;SDS011;11197;53.110;8.468;2022-12-18T01:07:23;49.28;;;22.92;;
22064;SDS011;11197;53.110;8.468;2022-12-18T01:09:48;49.40;;;22.05;;
22064;SDS011;11197;53.110;8.468;2022-12-18T01:12:14;50.58;;;22.33;;
22064;SDS011;11197;53.110;8.468;2022-12-18T01:14:40;47.15;;;22.52;;
22064;SDS011;11197;53.110;8.468;2022-12-18T01:17:06;46.95;;;21.30;;
22064;SDS011;11197;53.110;8.468;2022-12-18T01:19:32;49.13;;;21.58;;
22064;SDS011;11197;53.110;8.468;2022-12-18T01:21:58;46.75;;;21.52;;
22064;SDS011;11197;53.110;8.468;2022-12-18T01:24:24;42.00;;;20.67;;
22064;SDS011;11197;53.110;8.468;2022-12-18T01:26:50;43.95;;;21.70;;
22064;SDS011;11197;53.110;8.468;2022-12-18T01:29:16;45.58;;;20.92;;
22064;SDS011;11197;53.110;8.468;2022-12-18T01:31:44;43.67;;;21.02;;
22064;SDS011;11197;53.110;8.468;2022-12-18T01:34:10;48.97;;;21.02;;
22064;SDS011;11197;53.110;8.468;2022-12-18T01:36:37;45.85;;;21.20;;
22064;SDS011;11197;53.110;8.468;2022-12-18T01:39:06;45.10;;;21.20;;
22064;SDS011;11197;53.110;8.468;2022-12-18T01:41:34;46.30;;;21.30;;
22064;SDS011;11197;53.110;8.468;2022-12-18T01:50:11;40.17;;;20.65;;
22064;SDS011;11197;53.110;8.468;2022-12-18T01:52:41;40.70;;;20.15;;
22064;SDS011;11197;53.110;8.468;2022-12-18T01:55:10;39.88;;;19.98;;
22064;SDS011;11197;53.110;8.468;2022-12-18T01:57:37;42.63;;;20.52;;
22064;SDS011;11197;53.110;8.468;2022-12-18T02:00:06;40.25;;;20.00;;
22064;SDS011;11197;53.110;8.468;2022-12-18T02:02:39;41.10;;;20.88;;
22064;SDS011;11197;53.110;8.468;2022-12-18T02:05:06;41.03;;;19.90;;
22064;SDS011;11197;53.110;8.468;2022-12-18T02:07:42;44.30;;;20.40;;
22064;SDS011;11197;53.110;8.468;2022-12-18T02:10:26;39.47;;;19.98;;
22064;SDS011;11197;53.110;8.468;2022-12-18T02:12:53;39.63;;;20.48;;
22064;SDS011;11197;53.110;8.468;2022-12-18T02:18:26;40.15;;;18.95;;
22064;SDS011;11197;53.110;8.468;2022-12-18T02:21:33;42.47;;;20.02;;
22064;SDS011;11197;53.110;8.468;2022-12-18T02:27:04;39.38;;;19.10;;
22064;SDS011;11197;53.110;8.468;2022-12-18T02:29:35;39.47;;;18.92;;
22064;SDS011;11197;53.110;8.468;2022-12-18T02:32:10;40.42;;;19.60;;
22064;SDS011;11197;53.110;8.468;2022-12-18T02:34:40;42.30;;;20.02;;
22064;SDS011;11197;53.110;8.468;2022-12-18T02:37:13;39.03;;;19.95;;
22064;SDS011;11197;53.110;8.468;2022-12-18T02:39:42;37.00;;;19.48;;
22064;SDS011;11197;53.110;8.468;2022-12-18T02:42:12;38.67;;;19.13;;
22064;SDS011;11197;53.110;8.468;2022-12-18T02:44:49;38.88;;;19.88;;
22064;SDS011;11197;53.110;8.468;2022-12-18T02:47:20;38.72;;;18.58;;
22064;SDS011;11197;53.110;8.468;2022-12-18T02:50:02;38.22;;;19.70;;
22064;SDS011;11197;53.110;8.468;2022-12-18T02:58:43;37.10;;;18.95;;
22064;SDS011;11197;53.110;8.468;2022-12-18T03:06:53;36.55;;;18.48;;
22064;SDS011;11197;53.110;8.468;2022-12-18T03:09:36;35.30;;;17.88;;
22064;SDS011;11197;53.110;8.468;2022-12-18T03:12:12;39.83;;;18.70;;
22064;SDS011;11197;53.110;8.468;2022-12-18T03:14:59;36.47;;;17.73;;
22064;SDS011;11197;53.110;8.468;2022-12-18T03:17:31;34.53;;;17.45;;
22064;SDS011;11197;53.110;8.468;2022-12-18T03:20:00;37.03;;;18.20;;
22064;SDS011;11197;53.110;8.468;2022-12-18T03:22:32;37.95;;;18.15;;
22064;SDS011;11197;53.110;8.468;2022-12-18T03:25:00;35.78;;;17.60;;
22064;SDS011;11197;53.110;8.468;2022-12-18T03:27:29;28.90;;;14.20;;
22064;SDS011;11197;53.110;8.468;2022-12-18T03:30:07;36.47;;;17.30;;
22064;SDS011;11197;53.110;8.468;2022-12-18T03:35:30;35.65;;;17.55;;
22064;SDS011;11197;53.110;8.468;2022-12-18T03:38:00;38.85;;;18.40;;
22064;SDS011;11197;53.110;8.468;2022-12-18T03:40:28;37.00;;;18.08;;
22064;SDS011;11197;53.110;8.468;2022-12-18T03:45:55;36.15;;;17.30;;
22064;SDS011;11197;53.110;8.468;2022-12-18T03:48:44;36.33;;;17.58;;
22064;SDS011;11197;53.110;8.468;2022-12-18T03:51:26;35.10;;;17.67;;
22064;SDS011;11197;53.110;8.468;2022-12-18T03:54:02;37.63;;;18.67;;
22064;SDS011;11197;53.110;8.468;2022-12-18T03:56:38;36.10;;;17.50;;
22064;SDS011;11197;53.110;8.468;2022-12-18T03:59:08;36.83;;;17.73;;
22064;SDS011;11197;53.110;8.468;2022-12-18T04:01:39;34.15;;;17.48;;
22064;SDS011;11197;53.110;8.468;2022-12-18T04:04:11;30.38;;;16.75;;
22064;SDS011;11197;53.110;8.468;2022-12-18T04:06:40;31.67;;;17.23;;
22064;SDS011;11197;53.110;8.468;2022-12-18T04:09:09;32.47;;;16.90;;
22064;SDS011;11197;53.110;8.468;2022-12-18T04:11:39;36.85;;;17.73;;
22064;SDS011;11197;53.110;8.468;2022-12-18T04:14:09;35.35;;;17.60;;
22064;SDS011;11197;53.110;8.468;2022-12-18T04:16:36;35.85;;;17.70;;
22064;SDS011;11197;53.110;8.468;2022-12-18T04:19:04;34.38;;;16.75;;
22064;SDS011;11197;53.110;8.468;2022-12-18T04:21:36;33.85;;;17.15;;
22064;SDS011;11197;53.110;8.468;2022-12-18T04:24:02;35.53;;;16.95;;
22064;SDS011;11197;53.110;8.468;2022-12-18T04:26:29;31.48;;;15.82;;
22064;SDS011;11197;53.110;8.468;2022-12-18T04:29:16;33.75;;;17.02;;
22064;SDS011;11197;53.110;8.468;2022-12-18T04:31:42;33.63;;;16.65;;
22064;SDS011;11197;53.110;8.468;2022-12-18T04:34:08;32.60;;;15.95;;
22064;SDS011;11197;53.110;8.468;2022-12-18T04:36:40;31.88;;;16.98;;
22064;SDS011;11197;53.110;8.468;2022-12-18T04:39:07;33.35;;;16.17;;
22064;SDS011;11197;53.110;8.468;2022-12-18T04:41:33;31.63;;;16.23;;
22064;SDS011;11197;53.110;8.468;2022-12-18T04:43:59;32.58;;;15.95;;
22064;SDS011;11197;53.110;8.468;2022-12-18T04:46:25;32.20;;;16.70;;
22064;SDS011;11197;53.110;8.468;2022-12-18T04:48:51;32.13;;;16.30;;
22064;SDS011;11197;53.110;8.468;2022-12-18T04:51:16;34.15;;;16.55;;
22064;SDS011;11197;53.110;8.468;2022-12-18T04:53:42;28.92;;;15.35;;
22064;SDS011;11197;53.110;8.468;2022-12-18T04:56:09;32.00;;;15.57;;
22064;SDS011;11197;53.110;8.468;2022-12-18T04:58:38;29.80;;;14.70;;
22064;SDS011;11197;53.110;8.468;2022-12-18T05:01:05;27.40;;;14.27;;
22064;SDS011;11197;53.110;8.468;2022-12-18T05:03:32;31.98;;;14.95;;
22064;SDS011;11197;53.110;8.468;2022-12-18T05:05:59;29.80;;;15.60;;
22064;SDS011;11197;53.110;8.468;2022-12-18T05:08:25;31.90;;;15.57;;
22064;SDS011;11197;53.110;8.468;2022-12-18T05:10:58;29.77;;;15.25;;
22064;SDS011;11197;53.110;8.468;2022-12-18T05:13:25;29.98;;;15.32;;
22064;SDS011;11197;53.110;8.468;2022-12-18T05:15:52;30.98;;;14.95;;
22064;SDS011;11197;53.110;8.468;2022-12-18T05:18:18;29.30;;;15.68;;
22064;SDS011;11197;53.110;8.468;2022-12-18T05:20:44;29.52;;;15.40;;
22064;SDS011;11197;53.110;8.468;2022-12-18T05:23:10;29.77;;;14.55;;
22064;SDS011;11197;53.110;8.468;2022-12-18T05:25:35;29.17;;;15.68;;
22064;SDS011;11197;53.110;8.468;2022-12-18T05:28:01;29.60;;;15.10;;
22064;SDS011;11197;53.110;8.468;2022-12-18T05:30:27;29.98;;;15.15;;
22064;SDS011;11197;53.110;8.468;2022-12-18T05:32:53;29.65;;;14.82;;
22064;SDS011;11197;53.110;8.468;2022-12-18T05:35:19;30.35;;;15.05;;
22064;SDS011;11197;53.110;8.468;2022-12-18T05:37:45;29.00;;;14.82;;
22064;SDS011;11197;53.110;8.468;2022-12-18T05:40:11;26.77;;;13.48;;
22064;SDS011;11197;53.110;8.468;2022-12-18T05:42:37;27.58;;;14.00;;
22064;SDS011;11197;53.110;8.468;2022-12-18T05:45:03;27.30;;;14.13;;
22064;SDS011;11197;53.110;8.468;2022-12-18T05:47:30;26.95;;;14.02;;
22064;SDS011;11197;53.110;8.468;2022-12-18T05:49:55;27.33;;;14.68;;
22064;SDS011;11197;53.110;8.468;2022-12-18T05:52:22;29.05;;;14.63;;
22064;SDS011;11197;53.110;8.468;2022-12-18T05:54:48;26.75;;;13.85;;
22064;SDS011;11197;53.110;8.468;2022-12-18T05:57:14;26.05;;;13.90;;
22064;SDS011;11197;53.110;8.468;2022-12-18T05:59:40;27.65;;;13.98;;
22064;SDS011;11197;53.110;8.468;2022-12-18T06:02:05;24.60;;;13.55;;
22064;SDS011;11197;53.110;8.468;2022-12-18T06:04:31;25.90;;;13.00;;
22064;SDS011;11197;53.110;8.468;2022-12-18T06:06:57;24.33;;;12.25;;
22064;SDS011;11197;53.110;8.468;2022-12-18T06:09:23;26.27;;;13.35;;
22064;SDS011;11197;53.110;8.468;2022-12-18T06:11:51;25.60;;;13.15;;
22064;SDS011;11197;53.110;8.468;2022-12-18T06:14:17;23.98;;;13.23;;
22064;SDS011;11197;53.110;8.468;2022-12-18T06:16:43;24.75;;;13.18;;
22064;SDS011;11197;53.110;8.468;2022-12-18T06:19:13;25.45;;;12.85;;
22064;SDS011;11197;53.110;8.468;2022-12-18T06:21:40;29.02;;;14.02;;
22064;SDS011;11197;53.110;8.468;2022-12-18T06:24:06;32.03;;;15.13;;
22064;SDS011;11197;53.110;8.468;2022-12-18T06:26:32;27.88;;;13.70;;
22064;SDS011;11197;53.110;8.468;2022-12-18T06:28:58;23.42;;;13.07;;
22064;SDS011;11197;53.110;8.468;2022-12-18T06:31:24;24.85;;;13.25;;
22064;SDS011;11197;53.110;8.468;2022-12-18T06:33:50;25.33;;;12.43;;
22064;SDS011;11197;53.110;8.468;2022-12-18T06:36:17;23.90;;;12.27;;
22064;SDS011;11197;53.110;8.468;2022-12-18T06:38:43;21.95;;;11.77;;
22064;SDS011;11197;53.110;8.468;2022-12-18T06:41:11;22.75;;;11.55;;
22064;SDS011;11197;53.110;8.468;2022-12-18T06:43:44;20.95;;;11.32;;
22064;SDS011;11197;53.110;8.468;2022-12-18T06:46:10;22.98;;;11.43;;
22064;SDS011;11197;53.110;8.468;2022-12-18T06:48:37;20.85;;;11.15;;
22064;SDS011;11197;53.110;8.468;2022-12-18T06:51:04;22.48;;;11.30;;
22064;SDS011;11197;53.110;8.468;2022-12-18T06:53:31;21.20;;;10.60;;
22064;SDS011;11197;53.110;8.468;2022-12-18T06:56:04;21.00;;;11.48;;
22064;SDS011;11197;53.110;8.468;2022-12-18T06:58:32;20.10;;;10.93;;
22064;SDS011;11197;53.110;8.468;2022-12-18T07:01:02;21.20;;;10.82;;
22064;SDS011;11197;53.110;8.468;2022-12-18T07:03:29;18.48;;;9.98;;
22064;SDS011;11197;53.110;8.468;2022-12-18T07:05:54;19.10;;;10.38;;
22064;SDS011;11197;53.110;8.468;2022-12-18T07:08:20;19.60;;;9.95;;
22064;SDS011;11197;53.110;8.468;2022-12-18T07:10:47;22.95;;;10.52;;
22064;SDS011;11197;53.110;8.468;2022-12-18T07:13:14;19.95;;;10.10;;
22064;SDS011;11197;53.110;8.468;2022-12-18T07:15:41;22.38;;;10.73;;
22064;SDS011;11197;53.110;8.468;2022-12-18T07:18:08;18.80;;;9.93;;
22064;SDS011;11197;53.110;8.468;2022-12-18T07:20:34;19.33;;;9.88;;
22064;SDS011;11197;53.110;8.468;2022-12-18T07:23:01;20.65;;;10.25;;
22064;SDS011;11197;53.110;8.468;2022-12-18T07:25:28;18.17;;;10.15;;
22064;SDS011;11197;53.110;8.468;2022-12-18T07:27:54;19.17;;;10.15;;
22064;SDS011;11197;53.110;8.468;2022-12-18T07:30:19;22.02;;;11.10;;
22064;SDS011;11197;53.110;8.468;2022-12-18T07:32:45;19.58;;;10.38;;
22064;SDS011;11197;53.110;8.468;2022-12-18T07:35:11;21.77;;;11.18;;
22064;SDS011;11197;53.110;8.468;2022-12-18T07:37:37;21.83;;;11.95;;
22064;SDS011;11197;53.110;8.468;2022-12-18T07:40:03;27.30;;;12.48;;
22064;SDS011;11197;53.110;8.468;2022-12-18T07:42:30;20.83;;;11.40;;
22064;SDS011;11197;53.110;8.468;2022-12-18T07:44:56;20.52;;;10.73;;
22064;SDS011;11197;53.110;8.468;2022-12-18T07:47:22;20.17;;;10.55;;
22064;SDS011;11197;53.110;8.468;2022-12-18T07:49:51;22.67;;;10.65;;
22064;SDS011;11197;53.110;8.468;2022-12-18T07:52:17;19.48;;;9.88;;
22064;SDS011;11197;53.110;8.468;2022-12-18T07:54:43;17.58;;;10.23;;
22064;SDS011;11197;53.110;8.468;2022-12-18T07:57:10;17.88;;;9.55;;
22064;SDS011;11197;53.110;8.468;2022-12-18T07:59:36;17.15;;;9.00;;
22064;SDS011;11197;53.110;8.468;2022-12-18T08:02:02;18.55;;;9.43;;
22064;SDS011;11197;53.110;8.468;2022-12-18T08:04:28;16.70;;;9.30;;
22064;SDS011;11197;53.110;8.468;2022-12-18T08:06:54;16.00;;;8.50;;
22064;SDS011;11197;53.110;8.468;2022-12-18T08:09:20;15.60;;;8.40;;
22064;SDS011;11197;53.110;8.468;2022-12-18T08:11:46;16.30;;;8.80;;
22064;SDS011;11197;53.110;8.468;2022-12-18T08:14:11;15.40;;;8.63;;
22064;SDS011;11197;53.110;8.468;2022-12-18T08:16:37;16.98;;;9.15;;
22064;SDS011;11197;53.110;8.468;2022-12-18T08:19:03;22.10;;;10.48;;
22064;SDS011;11197;53.110;8.468;2022-12-18T08:21:30;16.27;;;8.90;;
22064;SDS011;11197;53.110;8.468;2022-12-18T08:24:00;14.55;;;7.72;;
22064;SDS011;11197;53.110;8.468;2022-12-18T08:26:28;13.75;;;8.05;;
22064;SDS011;11197;53.110;8.468;2022-12-18T08:28:56;14.55;;;8.02;;
22064;SDS011;11197;53.110;8.468;2022-12-18T08:31:23;13.77;;;8.25;;
22064;SDS011;11197;53.110;8.468;2022-12-18T08:33:51;14.23;;;8.50;;
22064;SDS011;11197;53.110;8.468;2022-12-18T08:36:21;14.27;;;8.20;;
22064;SDS011;11197;53.110;8.468;2022-12-18T08:38:47;11.13;;;6.15;;
22064;SDS011;11197;53.110;8.468;2022-12-18T08:41:14;15.13;;;9.02;;
22064;SDS011;11197;53.110;8.468;2022-12-18T08:43:41;14.98;;;9.38;;
22064;SDS011;11197;53.110;8.468;2022-12-18T08:46:26;17.88;;;9.75;;
22064;SDS011;11197;53.110;8.468;2022-12-18T08:48:53;19.75;;;10.43;;
22064;SDS011;11197;53.110;8.468;2022-12-18T08:51:20;17.70;;;10.65;;
22064;SDS011;11197;53.110;8.468;2022-12-18T08:53:46;21.25;;;10.80;;
22064;SDS011;11197;53.110;8.468;2022-12-18T08:56:13;19.70;;;11.25;;
22064;SDS011;11197;53.110;8.468;2022-12-18T08:58:39;20.00;;;10.90;;
22064;SDS011;11197;53.110;8.468;2022-12-18T09:01:06;18.55;;;10.80;;
22064;SDS011;11197;53.110;8.468;2022-12-18T09:03:34;20.67;;;11.40;;
22064;SDS011;11197;53.110;8.468;2022-12-18T09:06:00;18.60;;;10.18;;
22064;SDS011;11197;53.110;8.468;2022-12-18T09:08:27;18.88;;;10.75;;
22064;SDS011;11197;53.110;8.468;2022-12-18T09:10:53;18.15;;;9.75;;
22064;SDS011;11197;53.110;8.468;2022-12-18T09:13:20;16.95;;;9.75;;
22064;SDS011;11197;53.110;8.468;2022-12-18T09:15:48;18.40;;;9.52;;
22064;SDS011;11197;53.110;8.468;2022-12-18T09:18:20;17.30;;;9.73;;
22064;SDS011;11197;53.110;8.468;2022-12-18T09:20:47;18.63;;;10.45;;
22064;SDS011;11197;53.110;8.468;2022-12-18T09:23:13;19.77;;;10.35;;
22064;SDS011;11197;53.110;8.468;2022-12-18T09:25:39;17.45;;;9.80;;
22064;SDS011;11197;53.110;8.468;2022-12-18T09:28:09;18.35;;;10.35;;
22064;SDS011;11197;53.110;8.468;2022-12-18T09:30:40;18.33;;;10.43;;
22064;SDS011;11197;53.110;8.468;2022-12-18T09:33:08;19.75;;;11.23;;
22064;SDS011;11197;53.110;8.468;2022-12-18T09:35:37;19.85;;;10.80;;
22064;SDS011;11197;53.110;8.468;2022-12-18T09:38:04;20.43;;;11.67;;
22064;SDS011;11197;53.110;8.468;2022-12-18T09:40:35;18.40;;;10.85;;
22064;SDS011;11197;53.110;8.468;2022-12-18T09:43:05;19.02;;;10.65;;
22064;SDS011;11197;53.110;8.468;2022-12-18T09:45:39;20.40;;;10.47;;
22064;SDS011;11197;53.110;8.468;2022-12-18T09:48:10;21.65;;;10.70;;
22064;SDS011;11197;53.110;8.468;2022-12-18T09:50:45;21.20;;;10.75;;
22064;SDS011;11197;53.110;8.468;2022-12-18T09:53:14;19.80;;;11.40;;
22064;SDS011;11197;53.110;8.468;2022-12-18T09:55:45;21.70;;;10.82;;
22064;SDS011;11197;53.110;8.468;2022-12-18T09:58:30;21.73;;;11.20;;
22064;SDS011;11197;53.110;8.468;2022-12-18T10:01:02;18.35;;;10.73;;
22064;SDS011;11197;53.110;8.468;2022-12-18T10:03:35;19.77;;;10.98;;
22064;SDS011;11197;53.110;8.468;2022-12-18T10:19:40;23.90;;;12.98;;
22064;SDS011;11197;53.110;8.468;2022-12-18T10:28:00;20.20;;;11.88;;
22064;SDS011;11197;53.110;8.468;2022-12-18T10:30:37;20.88;;;11.52;;
22064;SDS011;11197;53.110;8.468;2022-12-18T10:33:04;20.83;;;12.25;;
22064;SDS011;11197;53.110;8.468;2022-12-18T10:35:31;22.40;;;12.23;;
22064;SDS011;11197;53.110;8.468;2022-12-18T10:40:29;21.80;;;11.55;;
22064;SDS011;11197;53.110;8.468;2022-12-18T10:43:29;20.63;;;11.95;;
22064;SDS011;11197;53.110;8.468;2022-12-18T10:45:59;21.13;;;11.73;;
22064;SDS011;11197;53.110;8.468;2022-12-18T10:48:27;20.30;;;11.40;;
22064;SDS011;11197;53.110;8.468;2022-12-18T10:50:55;19.83;;;11.35;;
22064;SDS011;11197;53.110;8.468;2022-12-18T10:53:25;19.13;;;11.38;;
22064;SDS011;11197;53.110;8.468;2022-12-18T10:55:56;21.55;;;11.85;;
22064;SDS011;11197;53.110;8.468;2022-12-18T10:58:36;22.17;;;11.77;;
22064;SDS011;11197;53.110;8.468;2022-12-18T11:01:05;21.05;;;11.43;;
22064;SDS011;11197;53.110;8.468;2022-12-18T11:06:06;35.85;;;17.45;;
22064;SDS011;11197;53.110;8.468;2022-12-18T11:08:37;30.10;;;15.57;;
22064;SDS011;11197;53.110;8.468;2022-12-18T11:11:04;27.50;;;13.40;;
22064;SDS011;11197;53.110;8.468;2022-12-18T11:13:41;23.98;;;13.88;;
22064;SDS011;11197;53.110;8.468;2022-12-18T11:16:19;23.08;;;12.18;;
22064;SDS011;11197;53.110;8.468;2022-12-18T11:18:46;25.42;;;13.10;;
22064;SDS011;11197;53.110;8.468;2022-12-18T11:21:12;23.05;;;12.05;;
22064;SDS011;11197;53.110;8.468;2022-12-18T11:23:59;23.65;;;9.85;;
22064;SDS011;11197;53.110;8.468;2022-12-18T11:26:33;25.00;;;13.13;;
22064;SDS011;11197;53.110;8.468;2022-12-18T11:29:10;23.17;;;11.73;;
22064;SDS011;11197;53.110;8.468;2022-12-18T11:31:42;17.83;;;10.20;;
22064;SDS011;11197;53.110;8.468;2022-12-18T11:34:12;17.73;;;10.38;;
22064;SDS011;11197;53.110;8.468;2022-12-18T11:36:52;15.05;;;9.35;;
22064;SDS011;11197;53.110;8.468;2022-12-18T11:39:36;16.30;;;10.02;;
22064;SDS011;11197;53.110;8.468;2022-12-18T11:42:20;16.30;;;10.07;;
22064;SDS011;11197;53.110;8.468;2022-12-18T11:47:42;18.92;;;10.00;;
22064;SDS011;11197;53.110;8.468;2022-12-18T11:50:18;15.93;;;10.30;;
22064;SDS011;11197;53.110;8.468;2022-12-18T11:52:47;17.23;;;10.07;;
22064;SDS011;11197;53.110;8.468;2022-12-18T11:55:14;18.60;;;10.35;;
22064;SDS011;11197;53.110;8.468;2022-12-18T12:00:21;17.70;;;10.38;;
22064;SDS011;11197;53.110;8.468;2022-12-18T12:08:45;17.08;;;10.40;;
22064;SDS011;11197;53.110;8.468;2022-12-18T12:39:07;18.45;;;11.15;;
22064;SDS011;11197;53.110;8.468;2022-12-18T12:41:38;21.15;;;11.32;;
22064;SDS011;11197;53.110;8.468;2022-12-18T12:44:32;18.25;;;10.93;;
22064;SDS011;11197;53.110;8.468;2022-12-18T12:47:11;18.95;;;11.30;;
22064;SDS011;11197;53.110;8.468;2022-12-18T12:49:56;20.35;;;11.30;;
22064;SDS011;11197;53.110;8.468;2022-12-18T12:52:31;17.13;;;10.07;;
22064;SDS011;11197;53.110;8.468;2022-12-18T12:55:02;24.80;;;14.60;;
22064;SDS011;11197;53.110;8.468;2022-12-18T12:57:39;21.75;;;13.35;;
22064;SDS011;11197;53.110;8.468;2022-12-18T13:02:39;19.05;;;11.50;;
22064;SDS011;11197;53.110;8.468;2022-12-18T13:07:51;19.08;;;10.52;;
22064;SDS011;11197;53.110;8.468;2022-12-18T13:10:23;18.10;;;10.18;;
22064;SDS011;11197;53.110;8.468;2022-12-18T13:15:41;16.70;;;10.70;;
22064;SDS011;11197;53.110;8.468;2022-12-18T13:18:11;19.70;;;10.27;;
22064;SDS011;11197;53.110;8.468;2022-12-18T13:25:51;18.00;;;10.23;;
22064;SDS011;11197;53.110;8.468;2022-12-18T13:31:13;35.63;;;19.58;;
22064;SDS011;11197;53.110;8.468;2022-12-18T13:33:41;22.15;;;11.27;;
22064;SDS011;11197;53.110;8.468;2022-12-18T13:41:39;16.75;;;10.98;;
22064;SDS011;11197;53.110;8.468;2022-12-18T13:44:17;17.25;;;10.85;;
22064;SDS011;11197;53.110;8.468;2022-12-18T13:47:27;14.98;;;7.88;;
22064;SDS011;11197;53.110;8.468;2022-12-18T13:49:58;17.50;;;10.48;;
22064;SDS011;11197;53.110;8.468;2022-12-18T13:52:26;15.45;;;10.02;;
22064;SDS011;11197;53.110;8.468;2022-12-18T13:55:01;21.00;;;10.70;;
22064;SDS011;11197;53.110;8.468;2022-12-18T13:57:34;19.70;;;10.80;;
22064;SDS011;11197;53.110;8.468;2022-12-18T14:00:25;17.02;;;10.00;;
22064;SDS011;11197;53.110;8.468;2022-12-18T14:02:53;21.70;;;10.82;;
22064;SDS011;11197;53.110;8.468;2022-12-18T14:05:24;16.88;;;10.07;;
22064;SDS011;11197;53.110;8.468;2022-12-18T14:08:06;20.45;;;11.25;;
22064;SDS011;11197;53.110;8.468;2022-12-18T14:10:42;20.92;;;11.13;;
22064;SDS011;11197;53.110;8.468;2022-12-18T14:13:10;18.70;;;10.93;;
22064;SDS011;11197;53.110;8.468;2022-12-18T14:15:43;20.55;;;11.57;;
22064;SDS011;11197;53.110;8.468;2022-12-18T14:20:57;21.70;;;11.18;;
22064;SDS011;11197;53.110;8.468;2022-12-18T14:25:53;17.73;;;10.60;;
22064;SDS011;11197;53.110;8.468;2022-12-18T14:28:19;16.13;;;9.90;;
22064;SDS011;11197;53.110;8.468;2022-12-18T14:30:46;19.02;;;11.32;;
22064;SDS011;11197;53.110;8.468;2022-12-18T14:35:51;26.85;;;14.05;;
22064;SDS011;11197;53.110;8.468;2022-12-18T14:38:26;23.00;;;12.95;;
22064;SDS011;11197;53.110;8.468;2022-12-18T14:40:56;18.70;;;11.10;;
22064;SDS011;11197;53.110;8.468;2022-12-18T14:43:23;20.77;;;10.85;;
22064;SDS011;11197;53.110;8.468;2022-12-18T14:45:49;19.20;;;10.10;;
22064;SDS011;11197;53.110;8.468;2022-12-18T14:50:44;19.40;;;10.27;;
22064;SDS011;11197;53.110;8.468;2022-12-18T14:53:38;16.23;;;10.10;;
22064;SDS011;11197;53.110;8.468;2022-12-18T14:56:16;17.17;;;10.00;;
22064;SDS011;11197;53.110;8.468;2022-12-18T14:58:45;15.95;;;9.15;;
22064;SDS011;11197;53.110;8.468;2022-12-18T15:01:23;16.75;;;10.05;;
22064;SDS011;11197;53.110;8.468;2022-12-18T15:03:51;17.98;;;10.43;;
22064;SDS011;11197;53.110;8.468;2022-12-18T15:06:24;16.27;;;9.88;;
22064;SDS011;11197;53.110;8.468;2022-12-18T15:08:51;15.43;;;9.90;;
22064;SDS011;11197;53.110;8.468;2022-12-18T15:17:17;13.32;;;8.70;;
22064;SDS011;11197;53.110;8.468;2022-12-18T15:19:45;17.38;;;9.80;;
22064;SDS011;11197;53.110;8.468;2022-12-18T15:22:20;15.77;;;9.48;;
22064;SDS011;11197;53.110;8.468;2022-12-18T15:24:49;14.45;;;8.95;;
22064;SDS011;11197;53.110;8.468;2022-12-18T15:27:20;16.35;;;9.35;;
22064;SDS011;11197;53.110;8.468;2022-12-18T15:32:35;17.02;;;8.52;;
22064;SDS011;11197;53.110;8.468;2022-12-18T15:35:03;20.23;;;10.18;;
22064;SDS011;11197;53.110;8.468;2022-12-18T15:37:41;16.40;;;9.30;;
22064;SDS011;11197;53.110;8.468;2022-12-18T15:40:12;18.88;;;9.75;;
22064;SDS011;11197;53.110;8.468;2022-12-18T15:42:42;18.55;;;9.80;;
22064;SDS011;11197;53.110;8.468;2022-12-18T15:45:27;14.93;;;8.77;;
22064;SDS011;11197;53.110;8.468;2022-12-18T15:47:53;15.35;;;8.43;;
22064;SDS011;11197;53.110;8.468;2022-12-18T15:50:19;14.90;;;8.55;;
22064;SDS011;11197;53.110;8.468;2022-12-18T15:52:46;17.48;;;8.70;;
22064;SDS011;11197;53.110;8.468;2022-12-18T15:55:16;13.68;;;8.43;;
22064;SDS011;11197;53.110;8.468;2022-12-18T15:58:02;14.90;;;8.85;;
22064;SDS011;11197;53.110;8.468;2022-12-18T16:00:29;17.60;;;8.88;;
22064;SDS011;11197;53.110;8.468;2022-12-18T16:02:55;15.20;;;8.73;;
22064;SDS011;11197;53.110;8.468;2022-12-18T16:05:20;19.45;;;8.40;;
22064;SDS011;11197;53.110;8.468;2022-12-18T16:07:48;18.10;;;8.82;;
22064;SDS011;11197;53.110;8.468;2022-12-18T16:10:14;14.00;;;8.85;;
22064;SDS011;11197;53.110;8.468;2022-12-18T16:12:40;14.13;;;8.40;;
22064;SDS011;11197;53.110;8.468;2022-12-18T16:15:07;15.98;;;8.75;;
22064;SDS011;11197;53.110;8.468;2022-12-18T16:17:36;16.02;;;8.60;;
22064;SDS011;11197;53.110;8.468;2022-12-18T16:20:02;15.15;;;8.68;;
22064;SDS011;11197;53.110;8.468;2022-12-18T16:22:28;16.13;;;8.43;;
22064;SDS011;11197;53.110;8.468;2022-12-18T16:24:55;15.77;;;9.00;;
22064;SDS011;11197;53.110;8.468;2022-12-18T16:27:22;15.15;;;8.82;;
22064;SDS011;11197;53.110;8.468;2022-12-18T16:29:49;15.13;;;8.55;;
22064;SDS011;11197;53.110;8.468;2022-12-18T16:32:16;15.48;;;8.45;;
22064;SDS011;11197;53.110;8.468;2022-12-18T16:34:44;15.10;;;8.82;;
22064;SDS011;11197;53.110;8.468;2022-12-18T16:37:11;17.92;;;9.35;;
22064;SDS011;11197;53.110;8.468;2022-12-18T16:39:38;17.23;;;8.68;;
22064;SDS011;11197;53.110;8.468;2022-12-18T16:42:16;16.70;;;9.20;;
22064;SDS011;11197;53.110;8.468;2022-12-18T16:44:44;18.90;;;9.90;;
22064;SDS011;11197;53.110;8.468;2022-12-18T16:47:12;18.08;;;9.32;;
22064;SDS011;11197;53.110;8.468;2022-12-18T16:49:38;17.35;;;9.23;;
22064;SDS011;11197;53.110;8.468;2022-12-18T16:52:04;16.10;;;9.38;;